Time;durP1;ratioP1;P1;durP2;ratioP2;P2;SDS_P1;SDS_P2;PMS_P1;PMS_P2;Temp;Humidity;BMP_temperature;BMP_pressure;BME280_temperature;BME280_humidity;BME280_pressure;Samples;Min_cycle;Max_cycle;Signal;HPM_P1;HPM_P2
2022/01/16 00:00:21;;;;;;;363.02;171.07;;;;;;;;;;5054980;28;20139;-67
2022/01/16 00:05:27;;;;;;;360.08;170.40;;;;;;;;;;5055060;28;20068;-67
2022/01/16 00:07:53;;;;;;;346.48;164.65;;;;;;;;;;5054661;28;20488;-67
2022/01/16 00:10:21;;;;;;;352.02;167.77;;;;;;;;;;5054854;28;20063;-68
2022/01/16 00:12:48;;;;;;;351.25;161.80;;;;;;;;;;5053428;28;20029;-67
2022/01/16 00:15:15;;;;;;;366.63;176.07;;;;;;;;;;5054440;28;20032;-67
2022/01/16 00:17:53;;;;;;;360.88;168.73;;;;;;;;;;5054736;28;20083;-68
2022/01/16 00:20:19;;;;;;;343.95;157.95;;;;;;;;;;5053409;28;20041;-67
2022/01/16 00:22:47;;;;;;;329.30;151.65;;;;;;;;;;5054635;28;20079;-67
2022/01/16 00:25:14;;;;;;;314.15;153.88;;;;;;;;;;5053329;28;20048;-69
2022/01/16 00:27:40;;;;;;;322.17;151.70;;;;;;;;;;5054594;28;20027;-67
2022/01/16 00:30:07;;;;;;;315.35;150.38;;;;;;;;;;5054797;28;20056;-67
2022/01/16 00:32:33;;;;;;;345.67;160.55;;;;;;;;;;5054179;28;20480;-66
2022/01/16 00:34:59;;;;;;;326.45;154.43;;;;;;;;;;5061774;28;20048;-68
2022/01/16 00:37:26;;;;;;;341.30;158.32;;;;;;;;;;5056383;28;20365;-68
2022/01/16 00:39:52;;;;;;;326.13;151.10;;;;;;;;;;5074413;28;20112;-68
2022/01/16 00:42:18;;;;;;;337.77;156.65;;;;;;;;;;5074243;28;20070;-67
2022/01/16 00:44:45;;;;;;;345.80;159.98;;;;;;;;;;5056246;28;20060;-67
2022/01/16 00:47:11;;;;;;;362.35;171.68;;;;;;;;;;5056162;28;20120;-68
2022/01/16 00:49:39;;;;;;;387.90;177.13;;;;;;;;;;5074170;28;20032;-67
2022/01/16 00:52:09;;;;;;;346.98;162.82;;;;;;;;;;5056136;28;20035;-67
2022/01/16 00:54:36;;;;;;;364.30;168.02;;;;;;;;;;5074061;28;20069;-70
2022/01/16 00:57:03;;;;;;;390.23;175.63;;;;;;;;;;5074261;28;20146;-66
2022/01/16 00:59:29;;;;;;;393.77;179.60;;;;;;;;;;5073934;28;20064;-66
2022/01/16 01:01:56;;;;;;;410.77;187.00;;;;;;;;;;5055949;28;20538;-67
2022/01/16 01:04:24;;;;;;;417.58;191.52;;;;;;;;;;5055920;28;20598;-68
2022/01/16 01:06:51;;;;;;;422.25;193.35;;;;;;;;;;5073782;28;20025;-68
2022/01/16 01:09:18;;;;;;;400.67;188.93;;;;;;;;;;5073461;28;20388;-68
2022/01/16 01:11:48;;;;;;;528.45;246.52;;;;;;;;;;5073650;28;20027;-67
2022/01/16 01:14:39;;;;;;;556.58;264.48;;;;;;;;;;5055694;28;20025;-66
2022/01/16 01:17:08;;;;;;;478.95;223.63;;;;;;;;;;5073488;28;20063;-68
2022/01/16 01:19:35;;;;;;;590.05;284.00;;;;;;;;;;5073522;28;20043;-68
2022/01/16 01:22:02;;;;;;;545.10;262.73;;;;;;;;;;5073496;28;20483;-67
2022/01/16 01:24:30;;;;;;;526.88;255.15;;;;;;;;;;5073338;28;20078;-68
2022/01/16 01:27:06;;;;;;;494.45;246.05;;;;;;;;;;5072873;28;20021;-68
2022/01/16 01:29:35;;;;;;;447.10;211.13;;;;;;;;;;5073470;28;20028;-67
2022/01/16 01:32:02;;;;;;;420.85;203.20;;;;;;;;;;5055378;28;20017;-69
2022/01/16 01:34:28;;;;;;;455.67;214.73;;;;;;;;;;5055097;28;20049;-67
2022/01/16 01:36:55;;;;;;;436.23;209.70;;;;;;;;;;5073339;28;20104;-66
2022/01/16 01:39:22;;;;;;;466.95;228.38;;;;;;;;;;5073349;28;20067;-68
2022/01/16 01:41:51;;;;;;;486.45;240.35;;;;;;;;;;5055345;28;20103;-66
2022/01/16 01:52:34;;;;;;;551.58;274.30;;;;;;;;;;5073193;28;20036;-67
2022/01/16 01:55:01;;;;;;;544.20;275.75;;;;;;;;;;5055057;28;20059;-66
2022/01/16 01:57:27;;;;;;;538.70;269.83;;;;;;;;;;5055060;28;20455;-68
2022/01/16 01:59:53;;;;;;;531.63;271.33;;;;;;;;;;5055005;28;20530;-67
2022/01/16 02:02:19;;;;;;;525.35;259.27;;;;;;;;;;5072983;28;20025;-68
2022/01/16 02:04:46;;;;;;;536.28;266.38;;;;;;;;;;5072982;28;20024;-68
2022/01/16 02:07:12;;;;;;;492.90;247.43;;;;;;;;;;5054597;28;20025;-67
2022/01/16 02:09:40;;;;;;;528.35;268.83;;;;;;;;;;5055005;28;20059;-66
2022/01/16 02:12:08;;;;;;;528.88;258.38;;;;;;;;;;5054813;28;20112;-66
2022/01/16 02:14:49;;;;;;;500.65;247.82;;;;;;;;;;5072857;28;20021;-68
2022/01/16 02:31:21;;;;;;;423.80;195.88;;;;;;;;;;5072823;28;20036;-68
2022/01/16 02:36:45;;;;;;;347.30;156.65;;;;;;;;;;5072534;28;20217;-68
2022/01/16 02:39:09;;;;;;;296.15;142.48;;;;;;;;;;5075475;28;20076;-67
2022/01/16 02:41:35;;;;;;;344.75;159.75;;;;;;;;;;5076637;28;20041;-69
2022/01/16 02:44:11;;;;;;;324.40;153.05;;;;;;;;;;5076560;28;20056;-68
2022/01/16 02:46:37;;;;;;;319.27;147.85;;;;;;;;;;5076548;28;20020;-68
2022/01/16 02:49:26;;;;;;;304.15;145.30;;;;;;;;;;5076518;28;20457;-67
2022/01/16 02:52:12;;;;;;;320.40;145.23;;;;;;;;;;5056410;28;20462;-68
2022/01/16 02:54:40;;;;;;;292.67;134.60;;;;;;;;;;5076648;28;20029;-69
2022/01/16 02:57:08;;;;;;;240.82;114.60;;;;;;;;;;5076296;28;20121;-67
2022/01/16 02:59:34;;;;;;;220.32;105.95;;;;;;;;;;5076521;28;20033;-67
2022/01/16 03:02:01;;;;;;;192.68;93.75;;;;;;;;;;5058519;28;20373;-68
2022/01/16 03:04:28;;;;;;;192.77;93.18;;;;;;;;;;5076124;28;20035;-68
2022/01/16 03:06:55;;;;;;;183.52;89.35;;;;;;;;;;5076051;28;20032;-68
2022/01/16 03:09:23;;;;;;;171.15;83.70;;;;;;;;;;5076429;28;20068;-67
2022/01/16 03:11:50;;;;;;;163.80;79.88;;;;;;;;;;5058003;28;20082;-66
2022/01/16 03:14:19;;;;;;;146.00;72.15;;;;;;;;;;5075967;28;20030;-68
2022/01/16 03:16:51;;;;;;;141.10;71.45;;;;;;;;;;5076155;28;20047;-68
2022/01/16 03:22:05;;;;;;;287.73;128.32;;;;;;;;;;5075877;28;20499;-68
2022/01/16 03:24:35;;;;;;;171.50;80.68;;;;;;;;;;5057735;28;20032;-68
2022/01/16 03:27:06;;;;;;;132.27;62.85;;;;;;;;;;5057746;28;20025;-69
2022/01/16 03:29:32;;;;;;;126.20;61.00;;;;;;;;;;5075477;28;20388;-67
2022/01/16 03:32:00;;;;;;;116.45;59.17;;;;;;;;;;5057613;28;20115;-69
2022/01/16 03:34:26;;;;;;;175.68;83.97;;;;;;;;;;5075341;28;20045;-67
2022/01/16 03:36:52;;;;;;;267.02;117.97;;;;;;;;;;5075640;28;20111;-68
2022/01/16 03:39:19;;;;;;;272.50;124.53;;;;;;;;;;5075463;28;20029;-69
2022/01/16 03:41:45;;;;;;;128.15;65.35;;;;;;;;;;5075506;28;20025;-67
2022/01/16 03:44:12;;;;;;;121.15;62.20;;;;;;;;;;5075411;28;20028;-68
2022/01/16 03:46:39;;;;;;;117.30;58.55;;;;;;;;;;5075363;28;20115;-68
2022/01/16 03:49:09;;;;;;;122.50;64.65;;;;;;;;;;5074514;28;20489;-69
2022/01/16 03:51:36;;;;;;;134.43;64.85;;;;;;;;;;5075361;28;20461;-68
2022/01/16 03:54:02;;;;;;;193.85;93.85;;;;;;;;;;5056960;28;20060;-68
2022/01/16 03:56:28;;;;;;;245.57;113.32;;;;;;;;;;5057188;28;20445;-68
2022/01/16 03:58:55;;;;;;;293.23;130.50;;;;;;;;;;5075058;28;20044;-67
2022/01/16 04:01:21;;;;;;;234.00;108.18;;;;;;;;;;5075146;28;20028;-68
2022/01/16 04:03:48;;;;;;;316.00;139.80;;;;;;;;;;5075338;28;20085;-68
2022/01/16 04:06:14;;;;;;;306.17;139.15;;;;;;;;;;5057010;28;20033;-66
2022/01/16 04:08:41;;;;;;;319.58;140.75;;;;;;;;;;5074871;28;20029;-69
2022/01/16 04:11:08;;;;;;;310.45;140.75;;;;;;;;;;5056957;28;20029;-70
2022/01/16 04:13:34;;;;;;;342.90;150.70;;;;;;;;;;5074859;28;20020;-67
2022/01/16 04:16:00;;;;;;;312.77;145.32;;;;;;;;;;5074862;28;20115;-67
2022/01/16 04:18:26;;;;;;;330.60;148.65;;;;;;;;;;5074992;28;20115;-69
2022/01/16 04:20:53;;;;;;;331.20;148.95;;;;;;;;;;5075065;28;20094;-68
2022/01/16 04:23:19;;;;;;;327.33;143.05;;;;;;;;;;5056692;28;20111;-67
2022/01/16 04:25:45;;;;;;;303.38;136.57;;;;;;;;;;5056656;28;20468;-68
2022/01/16 04:28:11;;;;;;;274.38;126.13;;;;;;;;;;5056594;28;20036;-68
2022/01/16 04:30:38;;;;;;;296.50;128.23;;;;;;;;;;5074830;28;20162;-67
2022/01/16 04:33:04;;;;;;;248.73;113.03;;;;;;;;;;5074477;28;20032;-68
2022/01/16 04:35:30;;;;;;;229.80;110.50;;;;;;;;;;5052711;28;20136;-67
2022/01/16 04:37:56;;;;;;;139.95;71.82;;;;;;;;;;5053134;28;20557;-68
2022/01/16 04:40:23;;;;;;;133.43;67.88;;;;;;;;;;5052992;28;20033;-69
2022/01/16 04:45:34;;;;;;;144.80;72.45;;;;;;;;;;5054055;28;20039;-69
2022/01/16 04:48:00;;;;;;;179.90;80.18;;;;;;;;;;5054219;28;20100;-66
2022/01/16 04:50:27;;;;;;;223.25;102.55;;;;;;;;;;5052901;28;20382;-68
2022/01/16 04:52:53;;;;;;;224.98;104.32;;;;;;;;;;5052850;28;20044;-67
2022/01/16 04:55:23;;;;;;;225.45;106.20;;;;;;;;;;5054051;28;20105;-68
2022/01/16 04:57:50;;;;;;;235.60;109.88;;;;;;;;;;5054055;28;20059;-68
2022/01/16 05:00:16;;;;;;;228.93;107.88;;;;;;;;;;5051574;28;20033;-67
2022/01/16 05:02:45;;;;;;;220.57;103.07;;;;;;;;;;5053925;28;20025;-67
2022/01/16 05:05:11;;;;;;;212.07;99.82;;;;;;;;;;5053889;28;20025;-68
2022/01/16 05:07:38;;;;;;;175.48;84.93;;;;;;;;;;5054138;28;20036;-69
2022/01/16 05:10:06;;;;;;;155.05;74.13;;;;;;;;;;5054122;28;20124;-68
2022/01/16 05:12:38;;;;;;;161.38;75.38;;;;;;;;;;5053784;28;20125;-66
2022/01/16 05:17:49;;;;;;;140.45;68.47;;;;;;;;;;5053429;28;20106;-67
2022/01/16 05:20:16;;;;;;;147.30;70.55;;;;;;;;;;5053592;28;20036;-68
2022/01/16 05:22:42;;;;;;;121.40;62.80;;;;;;;;;;5052272;28;20078;-68
2022/01/16 05:25:11;;;;;;;131.13;64.85;;;;;;;;;;5053527;28;20025;-67
2022/01/16 05:27:37;;;;;;;130.32;64.97;;;;;;;;;;5053496;28;20021;-68
2022/01/16 05:30:04;;;;;;;124.65;61.28;;;;;;;;;;5053437;28;20112;-67
2022/01/16 05:32:30;;;;;;;123.85;59.85;;;;;;;;;;5053709;28;20104;-66
2022/01/16 05:34:56;;;;;;;109.90;55.45;;;;;;;;;;5051789;28;20053;-67
2022/01/16 05:37:22;;;;;;;97.03;51.75;;;;;;;;;;5053348;28;20049;-68
2022/01/16 05:39:49;;;;;;;94.20;49.45;;;;;;;;;;5051907;28;20515;-67
2022/01/16 05:42:15;;;;;;;136.75;63.92;;;;;;;;;;5052000;28;20060;-69
2022/01/16 05:44:42;;;;;;;134.85;65.05;;;;;;;;;;5053313;28;20033;-67
2022/01/16 05:47:12;;;;;;;156.73;71.88;;;;;;;;;;5051871;28;20025;-67
2022/01/16 05:49:39;;;;;;;187.60;86.13;;;;;;;;;;5053282;28;20025;-68
2022/01/16 05:52:06;;;;;;;206.48;94.60;;;;;;;;;;5053194;28;20112;-67
2022/01/16 05:54:33;;;;;;;206.90;94.75;;;;;;;;;;5051812;28;20063;-67
2022/01/16 05:56:59;;;;;;;204.55;95.88;;;;;;;;;;5051742;28;20025;-66
2022/01/16 05:59:25;;;;;;;207.38;96.72;;;;;;;;;;5051642;28;20499;-67
2022/01/16 06:01:52;;;;;;;202.07;93.65;;;;;;;;;;5053062;28;20029;-67
2022/01/16 06:04:18;;;;;;;204.38;94.68;;;;;;;;;;5051660;28;20394;-68
2022/01/16 06:06:44;;;;;;;180.25;84.25;;;;;;;;;;5052973;28;20029;-67
2022/01/16 06:09:10;;;;;;;205.10;95.97;;;;;;;;;;5052950;28;20358;-68
2022/01/16 06:11:36;;;;;;;212.25;100.18;;;;;;;;;;5052541;28;20033;-67
2022/01/16 06:14:03;;;;;;;208.82;95.00;;;;;;;;;;5051615;28;20491;-65
2022/01/16 06:16:30;;;;;;;200.48;91.93;;;;;;;;;;5052582;28;20082;-67
2022/01/16 06:18:57;;;;;;;207.70;93.70;;;;;;;;;;5051716;28;20403;-67
2022/01/16 06:21:23;;;;;;;209.93;94.65;;;;;;;;;;5052898;28;20025;-67
2022/01/16 06:23:49;;;;;;;200.47;95.20;;;;;;;;;;5053066;28;20021;-67
2022/01/16 06:26:15;;;;;;;175.45;81.18;;;;;;;;;;5052757;28;20029;-66
2022/01/16 06:28:41;;;;;;;149.63;73.00;;;;;;;;;;5051430;28;20041;-68
2022/01/16 06:31:07;;;;;;;150.43;72.93;;;;;;;;;;5053006;28;20529;-69
2022/01/16 06:33:34;;;;;;;153.73;73.10;;;;;;;;;;5051401;28;20424;-67
2022/01/16 06:36:01;;;;;;;154.20;73.05;;;;;;;;;;5051219;28;20411;-67
2022/01/16 06:38:28;;;;;;;157.85;77.22;;;;;;;;;;5052610;28;20029;-66
2022/01/16 06:40:54;;;;;;;176.70;80.78;;;;;;;;;;5052703;28;20021;-68
2022/01/16 06:43:20;;;;;;;162.57;76.35;;;;;;;;;;5052944;28;20122;-67
2022/01/16 06:45:46;;;;;;;156.10;78.03;;;;;;;;;;5052597;28;20029;-67
2022/01/16 06:48:13;;;;;;;164.30;75.90;;;;;;;;;;5052574;28;20075;-68
2022/01/16 06:50:39;;;;;;;167.15;77.38;;;;;;;;;;5052530;28;20103;-66
2022/01/16 06:53:05;;;;;;;160.83;74.53;;;;;;;;;;5052488;28;20033;-67
2022/01/16 06:55:31;;;;;;;169.07;78.47;;;;;;;;;;5052771;28;20113;-67
2022/01/16 06:57:57;;;;;;;169.33;78.27;;;;;;;;;;5052428;28;20363;-66
2022/01/16 07:00:23;;;;;;;179.25;81.78;;;;;;;;;;5051050;28;20037;-67
2022/01/16 07:02:50;;;;;;;194.70;89.53;;;;;;;;;;5052465;28;20036;-67
2022/01/16 07:05:16;;;;;;;198.43;89.25;;;;;;;;;;5052350;28;20066;-68
2022/01/16 07:07:42;;;;;;;194.45;90.88;;;;;;;;;;5052443;28;20025;-67
2022/01/16 07:10:09;;;;;;;198.13;90.75;;;;;;;;;;5052410;28;20370;-68
2022/01/16 07:12:35;;;;;;;198.10;90.75;;;;;;;;;;5052418;28;20032;-66
2022/01/16 07:15:01;;;;;;;188.98;85.80;;;;;;;;;;5052310;28;20060;-68
2022/01/16 07:17:27;;;;;;;187.68;91.88;;;;;;;;;;5051065;28;20375;-68
2022/01/16 07:19:54;;;;;;;180.93;89.30;;;;;;;;;;5052238;28;20128;-67
2022/01/16 07:22:21;;;;;;;188.82;89.05;;;;;;;;;;5052285;28;20415;-68
2022/01/16 07:24:48;;;;;;;221.25;107.03;;;;;;;;;;5054816;28;20032;-69
2022/01/16 07:27:14;;;;;;;242.75;117.10;;;;;;;;;;5054445;28;20028;-66
2022/01/16 07:29:41;;;;;;;238.18;117.45;;;;;;;;;;5054120;28;20032;-68
2022/01/16 07:32:07;;;;;;;241.15;115.78;;;;;;;;;;5055960;28;20119;-67
2022/01/16 07:37:18;;;;;;;210.60;106.47;;;;;;;;;;5075585;28;20040;-67
2022/01/16 07:39:45;;;;;;;217.95;109.10;;;;;;;;;;5057516;28;20072;-68
2022/01/16 07:42:11;;;;;;;218.40;105.80;;;;;;;;;;5075524;28;20024;-68
2022/01/16 07:44:37;;;;;;;201.63;104.13;;;;;;;;;;5075480;28;20040;-68
2022/01/16 07:47:03;;;;;;;219.07;108.82;;;;;;;;;;5075462;28;20380;-68
2022/01/16 07:49:30;;;;;;;213.50;107.88;;;;;;;;;;5075408;28;20120;-68
2022/01/16 07:51:56;;;;;;;209.68;104.00;;;;;;;;;;5057395;28;20135;-68
2022/01/16 07:54:22;;;;;;;174.32;85.70;;;;;;;;;;5057253;28;20123;-69
2022/01/16 07:56:48;;;;;;;179.27;92.03;;;;;;;;;;5075204;28;20021;-67
2022/01/16 07:59:17;;;;;;;193.45;98.72;;;;;;;;;;5075119;28;20529;-67
2022/01/16 08:01:43;;;;;;;193.75;100.55;;;;;;;;;;5075225;28;20021;-67
2022/01/16 08:04:10;;;;;;;194.48;100.03;;;;;;;;;;5075093;28;20016;-68
2022/01/16 08:06:36;;;;;;;209.30;105.05;;;;;;;;;;5075062;28;20413;-67
2022/01/16 08:09:03;;;;;;;230.75;116.70;;;;;;;;;;5057065;28;20028;-67
2022/01/16 08:11:29;;;;;;;273.20;137.07;;;;;;;;;;5075026;28;20074;-67
2022/01/16 08:13:55;;;;;;;289.90;150.70;;;;;;;;;;5074910;28;20028;-67
2022/01/16 08:16:21;;;;;;;249.20;126.68;;;;;;;;;;5074885;28;20111;-68
2022/01/16 08:18:48;;;;;;;171.63;87.47;;;;;;;;;;5074773;28;20043;-69
2022/01/16 08:21:14;;;;;;;149.05;75.80;;;;;;;;;;5056800;28;20456;-68
2022/01/16 08:23:40;;;;;;;137.82;72.28;;;;;;;;;;5074786;28;20109;-67
2022/01/16 08:26:06;;;;;;;136.73;71.68;;;;;;;;;;5074371;28;20543;-67
2022/01/16 08:28:35;;;;;;;129.38;68.20;;;;;;;;;;5074619;28;20021;-67
2022/01/16 08:31:02;;;;;;;135.68;67.63;;;;;;;;;;5074863;28;20035;-68
2022/01/16 08:33:28;;;;;;;140.00;71.90;;;;;;;;;;5056514;28;20476;-68
2022/01/16 08:35:54;;;;;;;141.20;70.15;;;;;;;;;;5073715;28;20075;-68
2022/01/16 08:38:22;;;;;;;143.73;73.93;;;;;;;;;;5074420;28;20422;-68
2022/01/16 08:40:48;;;;;;;140.85;72.32;;;;;;;;;;5074385;28;20037;-67
2022/01/16 08:43:14;;;;;;;132.27;68.47;;;;;;;;;;5074389;28;20122;-67
2022/01/16 08:45:43;;;;;;;147.57;76.82;;;;;;;;;;5074281;28;20024;-68
2022/01/16 08:48:09;;;;;;;146.35;74.88;;;;;;;;;;5074221;28;20111;-66
2022/01/16 08:50:39;;;;;;;166.63;86.10;;;;;;;;;;5056186;28;20036;-68
2022/01/16 08:53:05;;;;;;;160.35;81.97;;;;;;;;;;5074150;28;20090;-66
2022/01/16 08:55:35;;;;;;;164.23;84.53;;;;;;;;;;5074310;28;20100;-67
2022/01/16 08:58:02;;;;;;;181.88;93.65;;;;;;;;;;5074053;28;20016;-67
2022/01/16 09:00:28;;;;;;;172.32;91.32;;;;;;;;;;5073919;28;20025;-68
2022/01/16 09:02:57;;;;;;;192.15;98.18;;;;;;;;;;5074064;28;20021;-68
2022/01/16 09:05:23;;;;;;;201.63;102.65;;;;;;;;;;5073904;28;20056;-67
2022/01/16 09:07:49;;;;;;;202.73;101.40;;;;;;;;;;5073841;28;20029;-67
2022/01/16 09:10:15;;;;;;;215.35;110.78;;;;;;;;;;5073795;28;20144;-67
2022/01/16 09:12:42;;;;;;;202.57;103.20;;;;;;;;;;5073836;28;20031;-67
2022/01/16 09:15:09;;;;;;;199.20;103.65;;;;;;;;;;5073738;28;20075;-69
2022/01/16 09:17:35;;;;;;;203.82;105.70;;;;;;;;;;5073693;28;20059;-67
2022/01/16 09:20:05;;;;;;;201.75;105.72;;;;;;;;;;5055607;28;20163;-69
2022/01/16 09:22:32;;;;;;;226.43;116.35;;;;;;;;;;5073635;28;20028;-66
2022/01/16 09:24:58;;;;;;;218.65;116.38;;;;;;;;;;5073567;28;20457;-67
2022/01/16 09:27:26;;;;;;;280.17;146.75;;;;;;;;;;5055607;28;20029;-66
2022/01/16 09:29:53;;;;;;;222.52;115.63;;;;;;;;;;5073211;28;20178;-68
2022/01/16 09:32:19;;;;;;;208.63;111.20;;;;;;;;;;5073701;28;20028;-66
2022/01/16 09:34:45;;;;;;;192.43;98.30;;;;;;;;;;5073104;28;20055;-68
2022/01/16 09:37:11;;;;;;;146.48;78.20;;;;;;;;;;5073429;28;20210;-67
2022/01/16 09:39:38;;;;;;;152.60;82.43;;;;;;;;;;5073318;28;20043;-66
2022/01/16 09:42:06;;;;;;;158.50;84.75;;;;;;;;;;5073595;28;20048;-67
2022/01/16 09:44:37;;;;;;;152.70;81.88;;;;;;;;;;5073284;28;20020;-67
2022/01/16 09:47:03;;;;;;;139.35;74.60;;;;;;;;;;5072710;28;20063;-66
2022/01/16 09:49:30;;;;;;;127.53;66.75;;;;;;;;;;5073457;28;20435;-67
2022/01/16 09:51:56;;;;;;;108.68;61.88;;;;;;;;;;5073215;28;20103;-66
2022/01/16 09:54:23;;;;;;;110.55;60.83;;;;;;;;;;5072929;28;20387;-68
2022/01/16 09:56:50;;;;;;;103.90;55.30;;;;;;;;;;5073179;28;20029;-68
2022/01/16 09:59:17;;;;;;;87.32;51.50;;;;;;;;;;5073024;28;20029;-68
2022/01/16 10:01:43;;;;;;;95.88;51.55;;;;;;;;;;5073081;28;20115;-68
2022/01/16 10:04:28;;;;;;;88.10;48.03;;;;;;;;;;5073388;28;20035;-68
2022/01/16 10:06:58;;;;;;;79.43;45.72;;;;;;;;;;5073030;28;20025;-66
2022/01/16 10:09:24;;;;;;;80.55;45.28;;;;;;;;;;5072987;28;20111;-66
2022/01/16 10:12:17;;;;;;;82.15;48.70;;;;;;;;;;5054923;28;20495;-69
2022/01/16 10:14:49;;;;;;;87.32;48.13;;;;;;;;;;5073022;28;20021;-67
2022/01/16 10:17:23;;;;;;;87.15;47.30;;;;;;;;;;5073021;28;20028;-68
2022/01/16 10:19:59;;;;;;;85.32;47.05;;;;;;;;;;5072846;28;20108;-67
2022/01/16 10:22:36;;;;;;;81.57;47.25;;;;;;;;;;5072978;28;20110;-67
2022/01/16 10:25:04;;;;;;;93.00;52.78;;;;;;;;;;5073184;28;20044;-68
2022/01/16 10:27:34;;;;;;;98.20;58.30;;;;;;;;;;5072812;28;20047;-67
2022/01/16 10:30:02;;;;;;;114.18;65.40;;;;;;;;;;5073094;28;20052;-68
2022/01/16 10:32:33;;;;;;;119.63;69.65;;;;;;;;;;5072721;28;20025;-67
2022/01/16 10:35:11;;;;;;;129.13;73.30;;;;;;;;;;5050947;28;20079;-70
2022/01/16 10:37:39;;;;;;;121.97;73.22;;;;;;;;;;5052654;28;20354;-67
2022/01/16 10:40:07;;;;;;;92.95;53.80;;;;;;;;;;5051204;28;20264;-65
2022/01/16 10:42:33;;;;;;;115.35;64.45;;;;;;;;;;5052655;28;20381;-67
2022/01/16 10:45:08;;;;;;;117.03;65.28;;;;;;;;;;5052870;28;20059;-69
2022/01/16 10:47:36;;;;;;;105.85;61.80;;;;;;;;;;5052600;28;20515;-67
2022/01/16 10:50:10;;;;;;;98.78;56.92;;;;;;;;;;5052540;28;20064;-67
2022/01/16 10:52:55;;;;;;;83.22;48.10;;;;;;;;;;5052506;28;20033;-66
2022/01/16 10:55:33;;;;;;;81.50;47.53;;;;;;;;;;5052592;28;20032;-69
2022/01/16 10:58:17;;;;;;;86.72;50.33;;;12.10;88.00;;;;;;5054079;28;20025;-68
2022/01/16 11:01:00;;;;;;;81.75;46.95;;;12.30;88.20;;;;;;5056576;28;20037;-69
2022/01/16 11:03:27;;;;;;;85.60;45.53;;;12.70;85.00;;;;;;5054999;28;20059;-68
2022/01/16 11:05:55;;;;;;;68.53;40.80;;;11.90;85.80;;;;;;5055954;28;20032;-69
2022/01/16 11:08:25;;;;;;;86.18;48.53;;;;;;;;;;5056243;28;20036;-68
2022/01/16 11:10:59;;;;;;;74.72;43.72;;;;;;;;;;5055065;28;20483;-68
2022/01/16 11:13:30;;;;;;;70.53;42.95;;;;;;;;;;5055886;28;20405;-68
2022/01/16 11:15:59;;;;;;;77.07;46.75;;;;;;;;;;5056113;28;20027;-69
2022/01/16 11:18:26;;;;;;;62.80;38.63;;;;;;;;;;5055963;28;20113;-69
2022/01/16 11:21:07;;;;;;;51.90;32.13;;;;;;;;;;5054546;28;20469;-68
2022/01/16 11:26:09;;;;;;;76.03;45.53;;;;;;;;;;5055820;28;20032;-67
2022/01/16 11:28:37;;;;;;;79.25;44.33;;;;;;;;;;5055738;28;20029;-68
2022/01/16 11:31:05;;;;;;;64.63;37.90;;;;;;;;;;5055691;28;20048;-69
2022/01/16 11:33:33;;;;;;;46.88;28.75;;;;;;;;;;5054160;28;20087;-68
2022/01/16 11:36:01;;;;;;;45.10;26.92;;;;;;;;;;5071005;28;20048;-70
2022/01/16 11:38:53;;;;;;;46.05;26.67;;;;;;;;;;5075554;28;20028;-67
2022/01/16 11:41:24;;;;;;;38.53;22.73;;;;;;;;;;5070842;28;20134;-68
2022/01/16 11:43:54;;;;;;;49.10;30.17;;;;;;;;;;5075896;28;20033;-67
2022/01/16 11:46:21;;;;;;;39.42;23.42;;;;;;;;;;5075505;28;20356;-68
2022/01/16 11:48:55;;;;;;;52.50;30.88;;;;;;;;;;5075457;28;20060;-68
2022/01/16 11:51:30;;;;;;;58.47;29.40;;;;;;;;;;5057326;28;20035;-68
2022/01/16 11:53:59;;;;;;;55.22;32.13;;;;;;;;;;5075668;28;20492;-68
2022/01/16 11:56:41;;;;;;;41.72;23.00;;;;;;;;;;5075258;28;20059;-67
2022/01/16 11:59:09;;;;;;;41.97;26.67;;;;;;;;;;5075204;28;20085;-70
2022/01/16 12:01:43;;;;;;;47.47;30.60;;;;;;;;;;5057146;28;20120;-66
2022/01/16 12:04:28;;;;;;;34.47;21.35;;;;;;;;;;5075138;28;20060;-67
2022/01/16 12:06:54;;;;;;;34.03;19.42;;;;;;;;;;5075063;28;20025;-67
2022/01/16 12:12:02;;;;;;;35.17;21.52;;;;;;;;;;5074926;28;20524;-67
2022/01/16 12:14:47;;;;;;;26.50;17.25;;;;;;;;;;5075197;28;20059;-67
2022/01/16 12:17:26;;;;;;;28.33;17.08;;;;;;;;;;5074958;28;20029;-66
2022/01/16 12:19:52;;;;;;;30.42;17.60;;;;;;;;;;5074780;28;20039;-67
2022/01/16 12:22:42;;;;;;;35.35;18.13;;;;;;;;;;5074795;28;20074;-67
2022/01/16 12:25:10;;;;;;;26.15;15.82;;;;;;;;;;5074703;28;20099;-68
2022/01/16 12:27:47;;;;;;;31.63;18.02;;;;;;;;;;5074673;28;20456;-67
2022/01/16 12:30:38;;;;;;;27.02;16.65;;;11.40;82.40;;;;;;5074593;28;20043;-68
2022/01/16 12:33:14;;;;;;;26.70;16.10;;;12.60;76.30;;;;;;5056729;28;20035;-67
2022/01/16 12:35:54;;;;;;;26.63;16.20;;;11.00;77.70;;;;;;5074109;28;20151;-68
2022/01/16 12:38:22;;;;;;;32.65;17.92;;;;;;;;;;5074525;28;20025;-67
2022/01/16 12:40:52;;;;;;;37.47;17.83;;;;;;;;;;5056324;28;20032;-65
2022/01/16 12:43:30;;;;;;;29.77;16.60;;;;;;;;;;5074447;28;20025;-68
2022/01/16 12:45:57;;;;;;;27.35;16.90;;;;;;;;;;5074400;28;20476;-66
2022/01/16 12:48:24;;;;;;;33.88;20.13;;;;;;;;;;5074534;28;20116;-68
2022/01/16 12:50:51;;;;;;;20.75;12.85;;;;;;;;;;5074221;28;20100;-66
2022/01/16 12:53:36;;;;;;;24.15;13.30;;;;;;;;;;5074207;28;20027;-67
2022/01/16 12:56:15;;;;;;;28.13;15.32;;;;;;;;;;5074185;28;20470;-68
2022/01/16 12:58:41;;;;;;;21.48;11.52;;;;;;;;;;5073890;28;20059;-67
2022/01/16 13:01:07;;;;;;;23.23;13.05;;;;;;;;;;5073973;28;20028;-68
2022/01/16 13:03:35;;;;;;;28.70;15.65;;;;;;;;;;5074201;28;20024;-66
2022/01/16 13:06:19;;;;;;;25.45;14.43;;;;;;;;;;5055962;28;20079;-66
2022/01/16 13:08:58;;;;;;;39.05;22.85;;;;;;;;;;5073862;28;20036;-66
2022/01/16 13:11:25;;;;;;;36.90;19.20;;;;;;;;;;5055824;28;20129;-68
2022/01/16 13:13:52;;;;;;;43.03;23.77;;;;;;;;;;5073838;28;20032;-66
2022/01/16 13:16:19;;;;;;;51.75;30.80;;;;;;;;;;5073650;28;20476;-67
2022/01/16 13:19:05;;;;;;;47.83;26.40;;;;;;;;;;5073553;28;20040;-66
2022/01/16 13:21:56;;;;;;;39.28;21.48;;;;;;;;;;5072706;28;20027;-66
2022/01/16 13:24:24;;;;;;;50.88;27.40;;;;;;;;;;5073634;28;20024;-65
2022/01/16 13:26:50;;;;;;;58.63;31.15;;;;;;;;;;5073544;28;20020;-66
2022/01/16 13:29:21;;;;;;;28.80;15.77;;;;;;;;;;5055541;28;20480;-66
2022/01/16 13:31:48;;;;;;;35.35;17.42;;;;;;;;;;5055542;28;20036;-67
2022/01/16 13:34:15;;;;;;;39.10;18.83;;;;;;;;;;5055307;28;20056;-66
2022/01/16 13:36:53;;;;;;;37.25;18.20;;;;;;;;;;5055730;28;20436;-66
2022/01/16 13:39:55;;;;;;;34.65;18.40;;;;;;;;;;5073269;28;20036;-66
2022/01/16 13:42:37;;;;;;;44.67;21.85;;;;;;;;;;4972230;28;20035;-66
2022/01/16 13:45:22;;;;;;;59.42;28.25;;;;;;;;;;5063675;28;20031;-66
2022/01/16 13:47:51;;;;;;;72.40;33.63;;;;;;;;;;5073418;28;20565;-65
2022/01/16 13:50:18;;;;;;;43.97;23.98;;;;;;;;;;5055142;28;20039;-65
2022/01/16 13:52:51;;;;;;;36.92;19.58;;;;;;;;;;5073156;28;20024;-66
2022/01/16 13:55:18;;;;;;;32.25;16.85;;;;;;;;;;5073186;28;20120;-65
2022/01/16 13:57:44;;;;;;;34.55;17.92;;;;;;;;;;5073074;28;20025;-65
2022/01/16 14:00:11;;;;;;;26.40;15.65;;;;;;;;;;5073040;28;20038;-65
2022/01/16 14:02:39;;;;;;;33.03;17.65;;;;;;;;;;5073060;28;20482;-65
2022/01/16 14:05:06;;;;;;;34.38;17.85;;;;;;;;;;5073140;28;20040;-65
2022/01/16 14:07:32;;;;;;;33.33;17.67;;;;;;;;;;5055037;28;20162;-66
2022/01/16 14:09:58;;;;;;;37.85;20.60;;;;;;;;;;5072956;28;20033;-65
2022/01/16 14:12:25;;;;;;;36.80;19.58;;;;;;;;;;5072912;28;20028;-67
2022/01/16 14:14:52;;;;;;;33.38;18.15;;;;;;;;;;5073055;28;20465;-66
2022/01/16 14:22:19;;;;;;;60.75;30.88;;;;;;;;;;5072846;28;20580;-68
2022/01/16 14:24:55;;;;;;;79.88;39.38;;;;;;;;;;5072806;28;20474;-64
2022/01/16 14:27:25;;;;;;;79.97;40.40;;;;;;;;;;5072827;28;20028;-65
2022/01/16 14:29:54;;;;;;;65.47;34.40;;;;;;;;;;5072883;28;20455;-65
2022/01/16 14:32:21;;;;;;;113.13;53.05;;;;;;;;;;5055192;28;20115;-64
2022/01/16 14:34:48;;;;;;;113.47;55.70;;;;;;;;;;5076546;28;20044;-66
2022/01/16 14:37:15;;;;;;;109.70;52.90;;;;;;;;;;5076837;28;20028;-66
2022/01/16 14:39:46;;;;;;;67.22;37.38;;;;;;;;;;5076573;28;20039;-65
2022/01/16 14:42:15;;;;;;;70.43;36.75;;;;;;;;;;5058653;28;20530;-65
2022/01/16 14:44:41;;;;;;;62.28;34.05;;;;;;;;;;5058503;28;20024;-66
2022/01/16 14:47:09;;;;;;;62.33;31.40;;;;;;;;;;5076570;28;20064;-64
2022/01/16 14:49:36;;;;;;;63.92;32.38;;;;;;;;;;5076525;28;20032;-66
2022/01/16 14:52:05;;;;;;;60.67;32.03;;;;;;;;;;5076453;28;20060;-66
2022/01/16 14:54:32;;;;;;;63.88;32.55;;;;;;;;;;5058536;28;20048;-66
2022/01/16 14:56:58;;;;;;;60.45;31.77;;;;;;;;;;5058349;28;20562;-65
2022/01/16 14:59:24;;;;;;;64.97;32.97;;;;;;;;;;5058263;28;20098;-65